Spring Glen, NY (12483)

12:22 PM EDT on August 29, 2015 (GMT -0400)
Ellenridge | | Change Station
CLOSE
Current Station
Personal Weather Station
Location: Ellenville, NY
Elevation: 502 ft
Nearby Weather Stations

Elev 502 ft 41.73 °N, 74.39 °W | Updated 5 seconds ago

Clear
Clear
79.3 °F
Feels Like 81 °F
N
0.6
Wind Variable Wind from South
Gusts 2.0 mph

Today
High -- | Low -- °F
--% Chance of Precip.
Yesterday
High -- | Low -- °F
Precip. -- in
6:20 AM 7:36 PM
Full, 100% visible
Pressure 30.21 in
Visibility 10.0 miles
Clouds Clear
Heat Index 81 °F
Dew Point 61 °F
Humidity 54%
Rainfall 0.00 in
Snow Depth Not available.
UV 8 out of 12
Pollen 10.00 out of 12
Air Quality Not available.
Flu Activity Not available.
METAR KMGJ 291554Z AUTO 17004KT 10SM CLR 25/16 A3021 RMK AO2 SLP228 T02500156 TSNO $
Pressure 30.21 in
Visibility 10.0 miles
Clouds Clear
Heat Index 81 °F
Dew Point 61 °F
Humidity 54%
Rainfall 0.00 in
Snow Depth Not available.
UV 8 out of 12
Pollen 10.00 out of 12
Air Quality Not available.
Flu Activity Not available.
METAR KMGJ 291554Z AUTO 17004KT 10SM CLR 25/16 A3021 RMK AO2 SLP228 T02500156 TSNO $

10-Day Weather Forecast

×

Almanac

Astronomy

Aug. 29, 2015 Rise Set
Actual Time
Civil Twilight
Nautical Twilight
Astronomical Twilight
Moon
Length of Visible Light
Length of Day
Tomorrow will be .
, % of the Moon is Illuminated

Today's Extremes

State Highs State Lows

Community

WunderPhotos

Upload Photos

1,850,719 photos uploaded!

WunderBlogs® & News

Nearby

Air Quality

  Air Quality AQ Index Pollutant
Not available.

Snow Depth

Station Depth Elevation

Earthquake Activity

City Distance Mag. Time & Date
Minimum magnitude displayed is 2.5.

Coastal Water Temperatures

Place Temperature

Stations

Nearby Weather Stations

Station Location Temp. Windchill Dew Point Humidity Wind Precip. Elev Updated Type